createdAt,value
2018-11-14T00:01:18.128Z,103440.75
2018-11-14T00:04:21.634Z,103431.73
2018-11-14T00:07:25.113Z,103432.33
2018-11-14T00:10:28.520Z,103439.02
2018-11-14T00:13:32.087Z,103439.32
2018-11-14T00:16:35.756Z,103433.73
2018-11-14T00:19:39.585Z,103433.33
2018-11-14T00:22:44.304Z,103427.34
2018-11-14T00:25:47.926Z,103422.84
2018-11-14T00:28:51.383Z,103429.22
2018-11-14T00:31:54.879Z,103431.29
2018-11-14T00:34:58.887Z,103434.25
2018-11-14T00:38:01.947Z,103436.90
2018-11-14T00:41:05.390Z,103426.24
2018-11-14T00:44:08.780Z,103423.04
2018-11-14T00:47:12.180Z,103423.55
2018-11-14T00:50:16.437Z,103425.06
2018-11-14T00:53:19.902Z,103427.78
2018-11-14T00:56:23.371Z,103420.72
2018-11-14T00:59:26.913Z,103425.21
2018-11-14T01:02:30.334Z,103422.45
2018-11-14T01:05:34.884Z,103426.62
2018-11-14T01:08:38.403Z,103427.89
2018-11-14T01:11:42.986Z,103429.47
2018-11-14T01:14:46.579Z,103428.26
2018-11-14T01:17:50.086Z,103434.21
2018-11-14T01:20:53.488Z,103439.81
2018-11-14T01:23:58.175Z,103444.59
2018-11-14T01:27:01.804Z,103442.61
2018-11-14T01:30:08.400Z,103445.23
2018-11-14T01:33:11.974Z,103448.25
2018-11-14T01:36:15.502Z,103448.80
2018-11-14T01:39:19.062Z,103453.45
2018-11-14T01:42:22.628Z,103456.94
2018-11-14T01:45:28.123Z,103454.30
2018-11-14T01:48:33.609Z,103454.82
2018-11-14T01:51:38.221Z,103449.17
2018-11-14T01:54:41.688Z,103453.80
2018-11-14T01:57:45.213Z,103446.15
2018-11-14T02:00:48.690Z,103440.64
2018-11-14T02:03:52.183Z,103437.43
2018-11-14T02:06:55.699Z,103435.07
2018-11-14T02:09:59.260Z,103436.21
2018-11-14T02:13:02.784Z,103430.94
2018-11-14T02:16:06.979Z,103425.23
2018-11-14T02:19:10.412Z,103429.09
2018-11-14T02:22:15.125Z,103423.09
2018-11-14T02:25:18.801Z,103430.66
2018-11-14T02:28:22.346Z,103433.30
2018-11-14T02:31:25.929Z,103426.14
2018-11-14T02:34:29.580Z,103423.76
2018-11-14T02:37:33.090Z,103422.88
2018-11-14T02:40:36.696Z,103426.46
2018-11-14T02:43:40.380Z,103419.45
2018-11-14T02:46:43.967Z,103421.35
2018-11-14T02:49:47.561Z,103416.79
2018-11-14T02:52:51.103Z,103417.83
2018-11-14T02:56:09.552Z,103423.00
2018-11-14T02:59:13.096Z,103418.15
2018-11-14T03:02:16.640Z,103414.28
2018-11-14T03:05:20.257Z,103413.87
2018-11-14T03:08:24.037Z,103413.61
2018-11-14T03:11:27.541Z,103406.40
2018-11-14T03:14:31.172Z,103402.12
2018-11-14T03:17:34.709Z,103396.89
2018-11-14T03:20:38.378Z,103389.28
2018-11-14T03:23:42.021Z,103393.77
2018-11-14T03:26:45.522Z,103388.09
2018-11-14T03:29:49.122Z,103388.14
2018-11-14T03:32:52.674Z,103379.89
2018-11-14T03:36:01.641Z,103380.85
2018-11-14T03:39:08.646Z,103378.00
2018-11-14T03:42:12.228Z,103376.93
2018-11-14T03:45:16.303Z,103367.92
2018-11-14T03:48:19.840Z,103365.23
2018-11-14T03:51:23.441Z,103366.73
2018-11-14T03:54:27.004Z,103363.71
2018-11-14T03:57:30.560Z,103362.40
2018-11-14T04:00:34.160Z,103364.47
2018-11-14T04:03:38.312Z,103366.65
2018-11-14T04:06:41.814Z,103370.39
2018-11-14T04:09:45.568Z,103367.05
2018-11-14T04:12:49.507Z,103367.59
2018-11-14T04:15:54.128Z,103366.67
2018-11-14T04:18:57.777Z,103366.52
2018-11-14T04:22:01.314Z,103373.65
2018-11-14T04:25:05.345Z,103369.70
2018-11-14T04:28:08.897Z,103369.47
2018-11-14T04:31:13.481Z,103368.12
2018-11-14T04:34:17.002Z,103368.05
2018-11-14T04:37:20.532Z,103366.42
2018-11-14T04:40:24.942Z,103361.88
2018-11-14T04:43:28.825Z,103360.77
2018-11-14T04:46:32.395Z,103363.84
2018-11-14T04:49:36.025Z,103369.67
2018-11-14T04:52:39.829Z,103363.91
2018-11-14T04:55:43.437Z,103371.81
2018-11-14T04:58:46.877Z,103365.67
2018-11-14T05:01:50.761Z,103362.50
2018-11-14T05:04:55.613Z,103357.70
2018-11-14T05:11:46.177Z,103347.93
2018-11-14T05:15:13.449Z,103344.74
2018-11-14T05:18:33.731Z,103349.62
2018-11-14T05:25:14.835Z,103336.21
2018-11-14T05:28:34.479Z,103337.00
2018-11-14T05:35:19.106Z,103329.45
2018-11-14T05:38:41.816Z,103330.83
2018-11-14T05:45:43.836Z,103340.72
2018-11-14T05:49:09.980Z,103358.10
2018-11-14T05:52:31.013Z,103362.82
2018-11-14T05:55:56.816Z,103371.80
2018-11-14T06:03:31.032Z,103373.72
2018-11-14T06:06:55.921Z,103370.73
2018-11-14T06:10:20.299Z,103363.62
2018-11-14T06:13:37.790Z,103358.37
2018-11-14T06:16:57.290Z,103358.12
2018-11-14T06:20:19.173Z,103363.81
2018-11-14T06:23:38.175Z,103356.46
2018-11-14T06:26:55.845Z,103342.88
2018-11-14T06:30:16.415Z,103344.98
2018-11-14T06:33:39.666Z,103350.36
2018-11-14T06:37:02.000Z,103340.91
2018-11-14T06:40:30.940Z,103329.76
2018-11-14T06:47:20.410Z,103322.72
2018-11-14T06:50:44.528Z,103311.07
2018-11-14T06:54:04.601Z,103323.11
2018-11-14T06:57:23.331Z,103318.27
2018-11-14T07:00:37.962Z,103310.28
2018-11-14T07:03:52.969Z,103314.54
2018-11-14T07:07:02.972Z,103319.46
2018-11-14T07:10:23.883Z,103319.37
2018-11-14T07:13:38.771Z,103319.80
2018-11-14T07:16:53.538Z,103319.29
2018-11-14T07:20:06.048Z,103321.73
2018-11-14T07:30:18.820Z,103319.55
2018-11-14T07:33:22.543Z,103317.33
2018-11-14T07:36:26.185Z,103316.93
2018-11-14T07:39:29.647Z,103318.47
2018-11-14T07:42:33.182Z,103316.51
2018-11-14T07:45:36.799Z,103317.23
2018-11-14T07:48:41.530Z,103322.63
2018-11-14T07:51:45.091Z,103324.17
2018-11-14T07:54:48.578Z,103323.39
2018-11-14T07:57:52.013Z,103337.87
2018-11-14T08:00:56.119Z,103325.74
2018-11-14T08:04:00.230Z,103328.71
2018-11-14T08:07:03.979Z,103334.55
2018-11-14T08:10:09.844Z,103337.68
2018-11-14T08:13:13.561Z,103332.82
2018-11-14T08:16:17.268Z,103335.26
2018-11-14T08:19:20.965Z,103333.77
2018-11-14T08:22:24.674Z,103329.38
2018-11-14T08:25:30.642Z,103318.96
2018-11-14T08:28:34.332Z,103306.61
2018-11-14T08:31:37.961Z,103306.33
2018-11-14T08:34:41.673Z,103296.54
2018-11-14T08:37:45.432Z,103298.50
2018-11-14T08:40:48.976Z,103299.09
2018-11-14T08:43:53.385Z,103294.38
2018-11-14T08:46:56.852Z,103294.61
2018-11-14T08:50:00.361Z,103301.89
2018-11-14T08:53:04.181Z,103299.34
2018-11-14T08:56:07.864Z,103298.07
2018-11-14T08:59:12.436Z,103297.97
2018-11-14T09:02:16.051Z,103296.31
2018-11-14T09:05:19.521Z,103296.58
2018-11-14T09:08:23.069Z,103293.71
2018-11-14T09:11:26.826Z,103297.07
2018-11-14T09:14:30.618Z,103284.12
2018-11-14T09:17:35.121Z,103276.28
2018-11-14T09:20:38.754Z,103273.63
2018-11-14T09:23:42.273Z,103274.09
2018-11-14T09:26:45.774Z,103268.10
2018-11-14T09:29:49.389Z,103274.38
2018-11-14T09:32:53.053Z,103275.48
2018-11-14T09:35:56.493Z,103277.13
2018-11-14T09:39:00.097Z,103280.82
2018-11-14T09:42:03.831Z,103279.34
2018-11-14T09:45:09.607Z,103287.81
2018-11-14T09:48:13.213Z,103285.28
2018-11-14T09:51:16.756Z,103280.13
2018-11-14T09:54:20.313Z,103278.27
2018-11-14T09:57:23.688Z,103273.83
2018-11-14T10:00:28.555Z,103283.06
2018-11-14T10:03:32.141Z,103287.68
2018-11-14T10:06:35.566Z,103284.17
2018-11-14T10:09:39.378Z,103284.89
2018-11-14T10:12:43.184Z,103284.97
2018-11-14T10:15:46.864Z,103268.79
2018-11-14T10:18:51.568Z,103265.50
2018-11-14T10:21:55.318Z,103268.74
2018-11-14T10:24:58.838Z,103271.13
2018-11-14T10:28:02.434Z,103261.40
2018-11-14T10:31:06.097Z,103259.35
2018-11-14T10:34:09.594Z,103252.58
2018-11-14T10:37:14.141Z,103244.26
2018-11-14T10:40:20.483Z,103233.99
2018-11-14T10:43:24.047Z,103234.21
2018-11-14T10:46:27.735Z,103224.21
2018-11-14T10:49:31.404Z,103223.70
2018-11-14T10:52:34.887Z,103219.49
2018-11-14T10:55:38.866Z,103214.88
2018-11-14T10:58:42.508Z,103208.23
2018-11-14T11:01:51.361Z,103205.46
2018-11-14T11:05:00.234Z,103200.33
2018-11-14T11:08:09.505Z,103196.19
2018-11-14T11:11:19.480Z,103194.13
2018-11-14T11:14:28.333Z,103184.49
2018-11-14T11:17:37.180Z,103176.40
2018-11-14T11:20:40.881Z,103175.69
2018-11-14T11:23:44.449Z,103174.72
2018-11-14T11:26:48.099Z,103172.31
2018-11-14T11:29:51.706Z,103165.07
2018-11-14T11:32:55.172Z,103160.48
2018-11-14T11:35:58.720Z,103159.96
2018-11-14T11:39:02.546Z,103160.15
2018-11-14T11:42:06.332Z,103157.17
2018-11-14T11:45:09.864Z,103148.99
2018-11-14T11:48:13.468Z,103153.01
2018-11-14T11:51:17.022Z,103143.96
2018-11-14T11:54:20.543Z,103138.86
2018-11-14T11:57:24.013Z,103140.10
2018-11-14T12:00:27.622Z,103133.76
2018-11-14T12:03:31.014Z,103140.20
2018-11-14T12:06:34.622Z,103130.21
2018-11-14T12:09:38.047Z,103125.73
2018-11-14T12:12:42.356Z,103130.11
2018-11-14T12:15:46.061Z,103116.22
2018-11-14T12:18:49.710Z,103115.52
2018-11-14T12:21:53.480Z,103117.84
2018-11-14T12:24:57.195Z,103117.27
2018-11-14T12:28:00.671Z,103114.27
2018-11-14T12:31:05.729Z,103109.85
2018-11-14T12:34:09.019Z,103109.02
2018-11-14T12:37:12.598Z,103100.63
2018-11-14T12:40:16.091Z,103099.19
2018-11-14T12:43:19.674Z,103092.10
2018-11-14T12:46:23.054Z,103093.16
2018-11-14T12:49:26.532Z,103086.49
2018-11-14T12:52:30.065Z,103082.71
2018-11-14T12:55:33.568Z,103084.10
2018-11-14T12:58:37.105Z,103078.51
2018-11-14T13:01:40.644Z,103078.85
2018-11-14T13:04:44.072Z,103074.80
2018-11-14T13:07:47.653Z,103070.21
2018-11-14T13:10:51.197Z,103069.54
2018-11-14T13:13:54.694Z,103056.41
2018-11-14T13:16:58.094Z,103056.26
2018-11-14T13:20:01.684Z,103053.92
2018-11-14T13:23:05.159Z,103049.81
2018-11-14T13:26:11.079Z,103057.14
2018-11-14T13:29:14.604Z,103053.16
2018-11-14T13:32:18.295Z,103054.77
2018-11-14T13:35:22.650Z,103064.02
2018-11-14T13:38:26.155Z,103062.01
2018-11-14T13:41:30.752Z,103068.51
2018-11-14T13:44:34.287Z,103064.20
2018-11-14T13:47:38.268Z,103062.10
2018-11-14T13:50:42.038Z,103065.17
2018-11-14T13:53:46.018Z,103061.60
2018-11-14T13:56:49.592Z,103067.61
2018-11-14T13:59:53.041Z,103072.47
2018-11-14T14:02:56.537Z,103081.75
2018-11-14T14:06:00.025Z,103078.52
2018-11-14T14:09:05.073Z,103081.80
2018-11-14T14:12:08.639Z,103084.14
2018-11-14T14:15:17.332Z,103089.92
2018-11-14T14:18:20.805Z,103086.71
2018-11-14T14:21:24.588Z,103085.47
2018-11-14T14:24:28.018Z,103085.29
2018-11-14T14:27:31.721Z,103082.52
2018-11-14T14:30:35.291Z,103077.74
2018-11-14T14:33:38.788Z,103078.82
2018-11-14T14:36:42.561Z,103086.80
2018-11-14T14:39:46.036Z,103081.09
2018-11-14T14:42:49.578Z,103087.27
2018-11-14T14:45:53.051Z,103088.89
2018-11-14T14:48:56.543Z,103098.82
2018-11-14T14:52:00.074Z,103103.03
2018-11-14T14:55:03.563Z,103099.16
2018-11-14T14:58:07.058Z,103100.81
2018-11-14T15:01:10.608Z,103096.06
2018-11-14T15:04:14.043Z,103094.70
2018-11-14T15:07:17.483Z,103091.77
2018-11-14T15:10:22.306Z,103087.69
2018-11-14T15:13:25.767Z,103084.68
2018-11-14T15:16:29.436Z,103083.89
2018-11-14T15:19:32.925Z,103082.09
2018-11-14T15:22:36.391Z,103084.58
2018-11-14T15:25:39.834Z,103081.53
2018-11-14T15:28:43.298Z,103083.59
2018-11-14T15:31:46.916Z,103085.39
2018-11-14T15:34:50.469Z,103084.82
2018-11-14T15:37:54.012Z,103081.10
2018-11-14T15:40:57.574Z,103078.13
2018-11-14T15:44:01.149Z,103079.23
2018-11-14T15:47:04.824Z,103078.50
2018-11-14T15:50:13.713Z,103080.11
2018-11-14T15:53:17.214Z,103082.58
2018-11-14T15:56:20.947Z,103088.06
2018-11-14T15:59:24.472Z,103084.94
2018-11-14T16:02:29.062Z,103086.94
2018-11-14T16:05:33.629Z,103082.99
2018-11-14T16:08:37.118Z,103083.42
2018-11-14T16:11:40.703Z,103088.15
2018-11-14T16:14:44.248Z,103094.93
2018-11-14T16:17:47.942Z,103094.44
2018-11-14T16:20:51.482Z,103098.50
2018-11-14T16:23:55.014Z,103089.17
2018-11-14T16:26:58.564Z,103094.49
2018-11-14T16:30:02.362Z,103101.61
2018-11-14T16:33:07.162Z,103106.86
2018-11-14T16:36:10.817Z,103113.31
2018-11-14T16:39:14.358Z,103114.05
2018-11-14T16:42:18.110Z,103113.88
2018-11-14T16:45:21.670Z,103116.77
2018-11-14T16:48:25.212Z,103117.97
2018-11-14T16:51:28.752Z,103116.91
2018-11-14T16:54:32.298Z,103121.19
2018-11-14T16:57:36.420Z,103119.42
2018-11-14T17:00:41.008Z,103117.04
2018-11-14T17:03:45.845Z,103112.78
2018-11-14T17:06:49.403Z,103112.78
2018-11-14T17:09:53.060Z,103121.15
2018-11-14T17:12:58.399Z,103110.98
2018-11-14T17:16:02.164Z,103115.98
2018-11-14T17:19:06.161Z,103117.78
2018-11-14T17:22:09.726Z,103116.03
2018-11-14T17:25:14.293Z,103115.64
2018-11-14T17:28:17.913Z,103112.71
2018-11-14T17:31:21.359Z,103112.12
2018-11-14T17:34:24.904Z,103111.73
2018-11-14T17:37:28.529Z,103110.14
2018-11-14T17:40:32.337Z,103106.17
2018-11-14T17:43:35.819Z,103105.98
2018-11-14T17:46:39.309Z,103105.59
2018-11-14T17:49:42.840Z,103107.95
2018-11-14T17:52:47.242Z,103101.98
2018-11-14T17:55:50.712Z,103097.12
2018-11-14T17:58:54.306Z,103096.61
2018-11-14T18:01:57.752Z,103102.58
2018-11-14T18:05:01.216Z,103098.93
2018-11-14T18:08:05.115Z,103093.35
2018-11-14T18:11:08.583Z,103094.54
2018-11-14T18:14:12.080Z,103099.86
2018-11-14T18:17:15.581Z,103099.38
2018-11-14T18:20:21.168Z,103098.99
2018-11-14T18:23:24.953Z,103103.52
2018-11-14T18:26:28.972Z,103103.48
2018-11-14T18:29:32.883Z,103098.22
2018-11-14T18:32:36.513Z,103098.86
2018-11-14T18:35:40.205Z,103098.79
2018-11-14T18:38:44.470Z,103102.22
2018-11-14T18:41:48.752Z,103098.46
2018-11-14T18:44:52.666Z,103104.57
2018-11-14T18:47:57.110Z,103103.51
2018-11-14T18:51:00.625Z,103098.15
2018-11-14T18:54:04.173Z,103096.83
2018-11-14T18:57:07.706Z,103093.05
2018-11-14T19:00:14.849Z,103086.48
2018-11-14T19:03:18.782Z,103082.95
2018-11-14T19:06:22.321Z,103079.91
2018-11-14T19:09:25.850Z,103085.07
2018-11-14T19:12:29.363Z,103087.37
2018-11-14T19:15:34.278Z,103084.15
2018-11-14T19:18:37.969Z,103079.27
2018-11-14T19:21:41.449Z,103082.75
2018-11-14T19:24:45.048Z,103082.22
2018-11-14T19:27:49.056Z,103079.42
2018-11-14T19:30:52.656Z,103081.73
2018-11-14T19:33:56.196Z,103087.87
2018-11-14T19:36:59.784Z,103089.65
2018-11-14T19:40:03.374Z,103086.08
2018-11-14T19:43:12.408Z,103084.41
2018-11-14T19:46:16.025Z,103085.37
2018-11-14T19:49:20.025Z,103086.84
2018-11-14T19:52:24.808Z,103086.44
2018-11-14T19:55:29.477Z,103086.27
2018-11-14T19:58:33.252Z,103085.26
2018-11-14T20:01:37.271Z,103086.18
2018-11-14T20:04:40.986Z,103087.69
2018-11-14T20:07:45.228Z,103087.45
2018-11-14T20:10:48.981Z,103082.99
2018-11-14T20:13:53.467Z,103080.99
2018-11-14T20:16:57.089Z,103078.44
2018-11-14T20:20:03.035Z,103085.91
2018-11-14T20:23:06.547Z,103080.06
2018-11-14T20:26:10.173Z,103082.72
2018-11-14T20:29:13.652Z,103085.91
2018-11-14T20:32:17.328Z,103088.52
2018-11-14T20:35:21.701Z,103089.22
2018-11-14T20:38:25.249Z,103088.36
2018-11-14T20:41:28.905Z,103088.72
2018-11-14T20:44:32.548Z,103088.95
2018-11-14T20:47:35.993Z,103092.27
2018-11-14T20:50:40.593Z,103092.49
2018-11-14T20:53:44.155Z,103092.27
2018-11-14T20:56:47.682Z,103097.91
2018-11-14T20:59:51.265Z,103093.74
2018-11-14T21:02:56.508Z,103094.93
2018-11-14T21:06:00.097Z,103094.19
2018-11-14T21:09:04.667Z,103095.26
2018-11-14T21:12:08.196Z,103093.92
2018-11-14T21:15:14.974Z,103092.25
2018-11-14T21:18:18.382Z,103093.47
2018-11-14T21:21:22.089Z,103092.20
2018-11-14T21:24:25.797Z,103086.71
2018-11-14T21:27:29.545Z,103083.74
2018-11-14T21:30:33.179Z,103080.77
2018-11-14T21:33:36.745Z,103079.18
2018-11-14T21:36:40.415Z,103078.54
2018-11-14T21:39:44.019Z,103076.91
2018-11-14T21:42:47.540Z,103069.95
2018-11-14T21:45:51.175Z,103066.57
2018-11-14T21:48:54.799Z,103064.36
2018-11-14T21:51:59.368Z,103062.80
2018-11-14T21:55:03.185Z,103059.83
2018-11-14T21:58:06.914Z,103055.41
2018-11-14T22:01:10.639Z,103055.63
2018-11-14T22:04:16.261Z,103049.91
2018-11-14T22:07:19.861Z,103044.99
2018-11-14T22:10:24.186Z,103048.68
2018-11-14T22:13:28.795Z,103040.70
2018-11-14T22:16:32.338Z,103047.70
2018-11-14T22:19:36.303Z,103050.63
2018-11-14T22:22:40.532Z,103052.45
2018-11-14T22:25:44.341Z,103054.98
2018-11-14T22:28:47.842Z,103050.10
2018-11-14T22:31:51.387Z,103059.81
2018-11-14T22:34:55.016Z,103055.95
2018-11-14T22:37:58.579Z,103055.24
2018-11-14T22:41:03.200Z,103064.46
2018-11-14T22:44:06.862Z,103060.61
2018-11-14T22:47:10.432Z,103066.11
2018-11-14T22:50:15.233Z,103064.39
2018-11-14T22:53:18.674Z,103065.73
2018-11-14T22:56:22.205Z,103067.67
2018-11-14T22:59:25.770Z,103074.38
2018-11-14T23:02:29.365Z,103069.81
2018-11-14T23:05:32.958Z,103063.38
2018-11-14T23:08:36.449Z,103064.84
2018-11-14T23:11:40.131Z,103060.84
2018-11-14T23:14:43.755Z,103064.40
2018-11-14T23:17:47.363Z,103065.81
2018-11-14T23:20:50.890Z,103074.11
2018-11-14T23:23:54.432Z,103070.83
2018-11-14T23:26:57.975Z,103069.68
2018-11-14T23:30:01.422Z,103072.29
2018-11-14T23:33:05.084Z,103069.24
2018-11-14T23:36:08.587Z,103066.70
2018-11-14T23:39:13.723Z,103060.18
2018-11-14T23:42:17.332Z,103060.10
2018-11-14T23:45:21.743Z,103061.39
2018-11-14T23:48:25.257Z,103061.83
2018-11-14T23:51:28.813Z,103062.00
2018-11-14T23:54:32.315Z,103060.89
2018-11-14T23:57:35.818Z,103070.34
